This is the latest recevied weather packets stored in our database for station/object DO1SN-13. If no packets are shown the sender has not sent any weather packets the latest 10 day(s).
| Time | Temp. | Humidity | Pressure | Rain* | Wind** | Luminosity | Snow |
|---|---|---|---|---|---|---|---|
| 1787818973 | 27.78° C | - | 1017.8 hPa | 0 mm | - | - | - |
| 1787818608 | 27.78° C | - | 1017.9 hPa | 0 mm | - | - | - |
| 1787818244 | 28.33° C | - | 1017.7 hPa | 0 mm | - | - | - |
| 1787817880 | 28.33° C | - | 1017.8 hPa | 0 mm | - | - | - |
| 1787817516 | 25.56° C | - | 1018 hPa | 0 mm | - | - | - |
| 1787817152 | 27.22° C | - | 1018 hPa | 0 mm | - | - | - |
| 1787816787 | 26.11° C | - | 1017.9 hPa | 0 mm | - | - | - |
| 1787816423 | 26.11° C | - | 1017.9 hPa | 0 mm | - | - | - |
| 1787816059 | 27.78° C | - | 1017.9 hPa | 0 mm | - | - | - |
| 1787815695 | 25.56° C | - | 1018 hPa | 0 mm | - | - | - |
| 1787815331 | 25° C | - | 1017.9 hPa | 0 mm | - | - | - |
| 1787814967 | 25° C | - | 1017.7 hPa | 0 mm | - | - | - |
| 1787814603 | 24.44° C | - | 1017.7 hPa | 0 mm | - | - | - |
| 1787814239 | 25.56° C | - | 1017.4 hPa | 0 mm | - | - | - |
| 1787813874 | 25° C | - | 1017.4 hPa | 0 mm | - | - | - |
| 1787813510 | 24.44° C | - | 1017.5 hPa | 0 mm | - | - | - |
| 1787813146 | 23.89° C | - | 1017.5 hPa | 0 mm | - | - | - |
| 1787812782 | 23.89° C | - | 1017.4 hPa | 0 mm | - | - | - |
| 1787812418 | 23.33° C | - | 1017.4 hPa | 0 mm | - | - | - |
| 1787812054 | 24.44° C | - | 1017.4 hPa | 0 mm | - | - | - |
| 1787811690 | 23.33° C | - | 1017.5 hPa | 0 mm | - | - | - |
| 1787811325 | 22.78° C | - | 1017.5 hPa | 0 mm | - | - | - |
| 1787810961 | 22.78° C | - | 1017.3 hPa | 0 mm | - | - | - |
| 1787810597 | 21.67° C | - | 1017.4 hPa | 0 mm | - | - | - |
| 1787810233 | 22.22° C | - | 1017.3 hPa | 0 mm | - | - | - |
* Rain latest hour (hover to see other rain measurements)
** Current wind speed in m/s (hover to see current wind gust speed)